sensor_id;sensor_type;location;lat;lon;timestamp;P1;durP1;ratioP1;P2;durP2;ratioP2
23838;SDS011;12100;44.384;20.272;2022-07-29T00:00:42;4.38;;;3.97;;
23838;SDS011;12100;44.384;20.272;2022-07-29T00:03:11;4.28;;;3.88;;
23838;SDS011;12100;44.384;20.272;2022-07-29T00:05:38;4.38;;;3.55;;
23838;SDS011;12100;44.384;20.272;2022-07-29T00:08:05;5.05;;;3.75;;
23838;SDS011;12100;44.384;20.272;2022-07-29T00:10:31;6.50;;;4.10;;
23838;SDS011;12100;44.384;20.272;2022-07-29T00:12:57;6.82;;;4.07;;
23838;SDS011;12100;44.384;20.272;2022-07-29T00:15:23;7.30;;;3.90;;
23838;SDS011;12100;44.384;20.272;2022-07-29T00:17:49;7.78;;;4.15;;
23838;SDS011;12100;44.384;20.272;2022-07-29T00:20:14;13.25;;;4.53;;
23838;SDS011;12100;44.384;20.272;2022-07-29T00:22:40;4.93;;;4.53;;
23838;SDS011;12100;44.384;20.272;2022-07-29T00:25:06;4.40;;;3.42;;
23838;SDS011;12100;44.384;20.272;2022-07-29T00:27:33;5.13;;;3.92;;
23838;SDS011;12100;44.384;20.272;2022-07-29T00:30:00;4.03;;;3.67;;
23838;SDS011;12100;44.384;20.272;2022-07-29T00:32:26;3.95;;;3.63;;
23838;SDS011;12100;44.384;20.272;2022-07-29T00:34:52;3.85;;;3.55;;
23838;SDS011;12100;44.384;20.272;2022-07-29T00:37:36;3.78;;;3.47;;
23838;SDS011;12100;44.384;20.272;2022-07-29T00:40:02;4.65;;;3.40;;
23838;SDS011;12100;44.384;20.272;2022-07-29T00:42:28;3.60;;;3.30;;
23838;SDS011;12100;44.384;20.272;2022-07-29T00:44:54;3.92;;;3.25;;
23838;SDS011;12100;44.384;20.272;2022-07-29T00:47:20;3.85;;;3.30;;
23838;SDS011;12100;44.384;20.272;2022-07-29T00:49:45;4.55;;;3.67;;
23838;SDS011;12100;44.384;20.272;2022-07-29T00:52:11;6.05;;;4.53;;
23838;SDS011;12100;44.384;20.272;2022-07-29T00:54:38;5.97;;;3.72;;
23838;SDS011;12100;44.384;20.272;2022-07-29T00:57:05;6.90;;;3.88;;
23838;SDS011;12100;44.384;20.272;2022-07-29T00:59:35;4.32;;;3.78;;
23838;SDS011;12100;44.384;20.272;2022-07-29T01:02:01;5.25;;;3.67;;
23838;SDS011;12100;44.384;20.272;2022-07-29T01:04:28;5.45;;;3.85;;
23838;SDS011;12100;44.384;20.272;2022-07-29T01:06:54;4.35;;;3.80;;
23838;SDS011;12100;44.384;20.272;2022-07-29T01:09:20;3.42;;;3.13;;
23838;SDS011;12100;44.384;20.272;2022-07-29T01:11:47;4.38;;;3.53;;
23838;SDS011;12100;44.384;20.272;2022-07-29T01:14:14;3.88;;;2.92;;
23838;SDS011;12100;44.384;20.272;2022-07-29T01:19:51;3.28;;;2.97;;
23838;SDS011;12100;44.384;20.272;2022-07-29T01:30:34;3.13;;;2.30;;
23838;SDS011;12100;44.384;20.272;2022-07-29T01:33:06;2.42;;;2.22;;
23838;SDS011;12100;44.384;20.272;2022-07-29T01:35:36;2.55;;;2.35;;
23838;SDS011;12100;44.384;20.272;2022-07-29T01:40:47;2.28;;;2.03;;
23838;SDS011;12100;44.384;20.272;2022-07-29T01:43:18;2.10;;;1.90;;
23838;SDS011;12100;44.384;20.272;2022-07-29T01:45:53;3.88;;;2.17;;
23838;SDS011;12100;44.384;20.272;2022-07-29T01:48:45;2.47;;;1.90;;
23838;SDS011;12100;44.384;20.272;2022-07-29T01:51:18;3.22;;;2.63;;
23838;SDS011;12100;44.384;20.272;2022-07-29T01:56:45;3.40;;;2.65;;
23838;SDS011;12100;44.384;20.272;2022-07-29T01:59:14;2.78;;;2.42;;
23838;SDS011;12100;44.384;20.272;2022-07-29T02:01:42;2.60;;;2.40;;
23838;SDS011;12100;44.384;20.272;2022-07-29T02:04:10;4.70;;;2.25;;
23838;SDS011;12100;44.384;20.272;2022-07-29T02:06:38;2.25;;;1.95;;
23838;SDS011;12100;44.384;20.272;2022-07-29T02:09:06;2.88;;;2.58;;
23838;SDS011;12100;44.384;20.272;2022-07-29T02:11:33;3.85;;;2.53;;
23838;SDS011;12100;44.384;20.272;2022-07-29T02:14:02;2.88;;;2.67;;
23838;SDS011;12100;44.384;20.272;2022-07-29T02:16:30;3.75;;;2.50;;
23838;SDS011;12100;44.384;20.272;2022-07-29T02:18:58;4.35;;;2.88;;
23838;SDS011;12100;44.384;20.272;2022-07-29T02:21:27;2.63;;;2.42;;
23838;SDS011;12100;44.384;20.272;2022-07-29T02:23:56;3.13;;;2.53;;
23838;SDS011;12100;44.384;20.272;2022-07-29T02:26:25;2.78;;;2.53;;
23838;SDS011;12100;44.384;20.272;2022-07-29T02:28:54;2.53;;;2.15;;
23838;SDS011;12100;44.384;20.272;2022-07-29T02:31:23;3.75;;;2.65;;
23838;SDS011;12100;44.384;20.272;2022-07-29T02:33:51;3.42;;;3.05;;
23838;SDS011;12100;44.384;20.272;2022-07-29T02:36:18;3.03;;;2.72;;
23838;SDS011;12100;44.384;20.272;2022-07-29T02:38:48;4.00;;;3.00;;
23838;SDS011;12100;44.384;20.272;2022-07-29T02:41:16;3.13;;;2.80;;
23838;SDS011;12100;44.384;20.272;2022-07-29T02:43:46;2.75;;;2.55;;
23838;SDS011;12100;44.384;20.272;2022-07-29T02:46:14;3.00;;;2.75;;
23838;SDS011;12100;44.384;20.272;2022-07-29T02:48:50;3.25;;;2.85;;
23838;SDS011;12100;44.384;20.272;2022-07-29T02:52:04;3.47;;;3.17;;
23838;SDS011;12100;44.384;20.272;2022-07-29T02:54:41;3.20;;;2.22;;
23838;SDS011;12100;44.384;20.272;2022-07-29T02:57:14;3.17;;;2.88;;
23838;SDS011;12100;44.384;20.272;2022-07-29T03:00:03;2.97;;;2.55;;
23838;SDS011;12100;44.384;20.272;2022-07-29T03:02:33;2.85;;;2.65;;
23838;SDS011;12100;44.384;20.272;2022-07-29T03:05:02;3.47;;;2.60;;
23838;SDS011;12100;44.384;20.272;2022-07-29T03:07:29;2.67;;;2.38;;
23838;SDS011;12100;44.384;20.272;2022-07-29T03:09:56;3.30;;;2.50;;
23838;SDS011;12100;44.384;20.272;2022-07-29T03:12:23;3.50;;;2.65;;
23838;SDS011;12100;44.384;20.272;2022-07-29T03:14:49;3.85;;;3.30;;
23838;SDS011;12100;44.384;20.272;2022-07-29T03:17:16;3.20;;;2.90;;
23838;SDS011;12100;44.384;20.272;2022-07-29T03:19:42;5.25;;;2.65;;
23838;SDS011;12100;44.384;20.272;2022-07-29T03:22:08;4.40;;;2.60;;
23838;SDS011;12100;44.384;20.272;2022-07-29T03:24:35;4.18;;;3.10;;
23838;SDS011;12100;44.384;20.272;2022-07-29T03:27:03;3.35;;;3.00;;
23838;SDS011;12100;44.384;20.272;2022-07-29T03:29:29;3.40;;;3.10;;
23838;SDS011;12100;44.384;20.272;2022-07-29T03:31:56;5.70;;;2.80;;
23838;SDS011;12100;44.384;20.272;2022-07-29T03:34:21;3.15;;;2.85;;
23838;SDS011;12100;44.384;20.272;2022-07-29T03:36:47;5.45;;;2.80;;
23838;SDS011;12100;44.384;20.272;2022-07-29T03:39:15;3.55;;;2.90;;
23838;SDS011;12100;44.384;20.272;2022-07-29T03:41:44;4.65;;;2.60;;
23838;SDS011;12100;44.384;20.272;2022-07-29T03:44:12;3.40;;;2.63;;
23838;SDS011;12100;44.384;20.272;2022-07-29T03:46:40;4.53;;;3.22;;
23838;SDS011;12100;44.384;20.272;2022-07-29T03:49:08;2.53;;;2.33;;
23838;SDS011;12100;44.384;20.272;2022-07-29T03:51:35;5.50;;;2.70;;
23838;SDS011;12100;44.384;20.272;2022-07-29T03:54:05;4.35;;;2.88;;
23838;SDS011;12100;44.384;20.272;2022-07-29T03:56:32;5.38;;;2.88;;
23838;SDS011;12100;44.384;20.272;2022-07-29T03:59:00;5.07;;;3.03;;
23838;SDS011;12100;44.384;20.272;2022-07-29T04:01:28;2.85;;;2.63;;
23838;SDS011;12100;44.384;20.272;2022-07-29T04:03:55;3.28;;;2.80;;
23838;SDS011;12100;44.384;20.272;2022-07-29T04:06:22;4.15;;;2.95;;
23838;SDS011;12100;44.384;20.272;2022-07-29T04:08:47;5.93;;;3.10;;
23838;SDS011;12100;44.384;20.272;2022-07-29T04:11:13;3.25;;;2.95;;
23838;SDS011;12100;44.384;20.272;2022-07-29T04:13:39;5.45;;;3.35;;
23838;SDS011;12100;44.384;20.272;2022-07-29T04:16:05;5.68;;;3.78;;
23838;SDS011;12100;44.384;20.272;2022-07-29T04:18:30;5.70;;;3.33;;
23838;SDS011;12100;44.384;20.272;2022-07-29T04:20:56;6.70;;;3.30;;
23838;SDS011;12100;44.384;20.272;2022-07-29T04:23:25;5.82;;;3.80;;
23838;SDS011;12100;44.384;20.272;2022-07-29T04:25:52;4.03;;;3.38;;
23838;SDS011;12100;44.384;20.272;2022-07-29T04:28:18;7.03;;;3.80;;
23838;SDS011;12100;44.384;20.272;2022-07-29T04:30:43;4.63;;;3.58;;
23838;SDS011;12100;44.384;20.272;2022-07-29T04:33:09;4.95;;;4.47;;
23838;SDS011;12100;44.384;20.272;2022-07-29T04:35:36;7.13;;;4.10;;
23838;SDS011;12100;44.384;20.272;2022-07-29T04:38:03;4.53;;;4.13;;
23838;SDS011;12100;44.384;20.272;2022-07-29T04:40:29;4.75;;;4.35;;
23838;SDS011;12100;44.384;20.272;2022-07-29T04:42:55;4.95;;;4.30;;
23838;SDS011;12100;44.384;20.272;2022-07-29T04:45:21;4.47;;;3.95;;
23838;SDS011;12100;44.384;20.272;2022-07-29T04:47:47;7.95;;;4.65;;
23838;SDS011;12100;44.384;20.272;2022-07-29T04:50:13;6.40;;;3.88;;
23838;SDS011;12100;44.384;20.272;2022-07-29T04:52:39;6.45;;;3.92;;
23838;SDS011;12100;44.384;20.272;2022-07-29T04:55:05;9.02;;;4.68;;
23838;SDS011;12100;44.384;20.272;2022-07-29T04:57:31;5.07;;;4.47;;
23838;SDS011;12100;44.384;20.272;2022-07-29T04:59:57;4.82;;;4.35;;
23838;SDS011;12100;44.384;20.272;2022-07-29T05:02:23;5.03;;;4.63;;
23838;SDS011;12100;44.384;20.272;2022-07-29T05:04:49;4.63;;;4.25;;
23838;SDS011;12100;44.384;20.272;2022-07-29T05:07:15;6.03;;;5.22;;
23838;SDS011;12100;44.384;20.272;2022-07-29T05:09:41;5.38;;;4.47;;
23838;SDS011;12100;44.384;20.272;2022-07-29T05:12:07;6.10;;;4.72;;
23838;SDS011;12100;44.384;20.272;2022-07-29T05:14:33;7.05;;;4.50;;
23838;SDS011;12100;44.384;20.272;2022-07-29T05:16:58;5.65;;;4.97;;
23838;SDS011;12100;44.384;20.272;2022-07-29T05:19:24;6.28;;;5.10;;
23838;SDS011;12100;44.384;20.272;2022-07-29T05:21:50;9.65;;;6.13;;
23838;SDS011;12100;44.384;20.272;2022-07-29T05:24:16;4.47;;;4.07;;
23838;SDS011;12100;44.384;20.272;2022-07-29T05:26:42;7.70;;;4.88;;
23838;SDS011;12100;44.384;20.272;2022-07-29T05:29:08;8.00;;;4.57;;
23838;SDS011;12100;44.384;20.272;2022-07-29T05:31:34;7.35;;;5.15;;
23838;SDS011;12100;44.384;20.272;2022-07-29T05:34:00;9.35;;;4.85;;
23838;SDS011;12100;44.384;20.272;2022-07-29T05:36:26;6.93;;;5.00;;
23838;SDS011;12100;44.384;20.272;2022-07-29T05:38:52;5.78;;;5.15;;
23838;SDS011;12100;44.384;20.272;2022-07-29T05:41:18;5.88;;;5.38;;
23838;SDS011;12100;44.384;20.272;2022-07-29T05:43:44;11.50;;;4.88;;
23838;SDS011;12100;44.384;20.272;2022-07-29T05:46:10;5.47;;;4.97;;
23838;SDS011;12100;44.384;20.272;2022-07-29T05:48:36;5.47;;;4.97;;
23838;SDS011;12100;44.384;20.272;2022-07-29T05:51:02;8.73;;;5.18;;
23838;SDS011;12100;44.384;20.272;2022-07-29T05:53:28;9.48;;;5.70;;
23838;SDS011;12100;44.384;20.272;2022-07-29T05:55:54;9.52;;;5.90;;
23838;SDS011;12100;44.384;20.272;2022-07-29T05:58:19;5.65;;;4.90;;
23838;SDS011;12100;44.384;20.272;2022-07-29T06:00:45;6.03;;;5.40;;
23838;SDS011;12100;44.384;20.272;2022-07-29T06:03:11;6.00;;;5.38;;
23838;SDS011;12100;44.384;20.272;2022-07-29T06:05:37;5.68;;;5.18;;
23838;SDS011;12100;44.384;20.272;2022-07-29T06:08:03;5.90;;;5.40;;
23838;SDS011;12100;44.384;20.272;2022-07-29T06:10:33;5.60;;;4.97;;
23838;SDS011;12100;44.384;20.272;2022-07-29T06:13:00;5.43;;;4.93;;
23838;SDS011;12100;44.384;20.272;2022-07-29T06:15:26;6.93;;;4.95;;
23838;SDS011;12100;44.384;20.272;2022-07-29T06:17:52;5.57;;;5.07;;
23838;SDS011;12100;44.384;20.272;2022-07-29T06:20:18;7.68;;;6.30;;
23838;SDS011;12100;44.384;20.272;2022-07-29T06:22:44;6.05;;;5.45;;
23838;SDS011;12100;44.384;20.272;2022-07-29T06:25:10;6.05;;;5.45;;
23838;SDS011;12100;44.384;20.272;2022-07-29T06:27:36;5.75;;;5.25;;
23838;SDS011;12100;44.384;20.272;2022-07-29T06:30:02;6.47;;;5.78;;
23838;SDS011;12100;44.384;20.272;2022-07-29T06:32:31;8.40;;;4.95;;
23838;SDS011;12100;44.384;20.272;2022-07-29T06:34:57;6.10;;;5.60;;
23838;SDS011;12100;44.384;20.272;2022-07-29T06:37:24;7.55;;;5.55;;
23838;SDS011;12100;44.384;20.272;2022-07-29T06:39:50;6.50;;;6.00;;
23838;SDS011;12100;44.384;20.272;2022-07-29T06:42:35;7.63;;;6.50;;
23838;SDS011;12100;44.384;20.272;2022-07-29T06:45:01;6.70;;;6.10;;
23838;SDS011;12100;44.384;20.272;2022-07-29T06:47:27;8.57;;;5.88;;
23838;SDS011;12100;44.384;20.272;2022-07-29T06:49:53;6.30;;;5.70;;
23838;SDS011;12100;44.384;20.272;2022-07-29T06:52:19;6.80;;;6.07;;
23838;SDS011;12100;44.384;20.272;2022-07-29T06:54:45;6.38;;;5.63;;
23838;SDS011;12100;44.384;20.272;2022-07-29T06:57:13;7.47;;;5.93;;
23838;SDS011;12100;44.384;20.272;2022-07-29T06:59:39;8.15;;;6.40;;
23838;SDS011;12100;44.384;20.272;2022-07-29T07:02:05;6.65;;;6.05;;
23838;SDS011;12100;44.384;20.272;2022-07-29T07:04:30;7.35;;;5.90;;
23838;SDS011;12100;44.384;20.272;2022-07-29T07:06:57;6.30;;;5.75;;
23838;SDS011;12100;44.384;20.272;2022-07-29T07:09:24;6.13;;;5.63;;
23838;SDS011;12100;44.384;20.272;2022-07-29T07:11:49;6.65;;;6.05;;
23838;SDS011;12100;44.384;20.272;2022-07-29T07:14:15;9.48;;;5.95;;
23838;SDS011;12100;44.384;20.272;2022-07-29T07:16:41;7.05;;;6.38;;
23838;SDS011;12100;44.384;20.272;2022-07-29T07:19:07;7.38;;;6.40;;
23838;SDS011;12100;44.384;20.272;2022-07-29T07:21:33;7.05;;;6.32;;
23838;SDS011;12100;44.384;20.272;2022-07-29T07:23:59;6.88;;;6.28;;
23838;SDS011;12100;44.384;20.272;2022-07-29T07:26:25;7.55;;;6.53;;
23838;SDS011;12100;44.384;20.272;2022-07-29T07:28:52;10.18;;;6.88;;
23838;SDS011;12100;44.384;20.272;2022-07-29T07:31:18;11.95;;;8.63;;
23838;SDS011;12100;44.384;20.272;2022-07-29T07:33:44;8.95;;;8.15;;
23838;SDS011;12100;44.384;20.272;2022-07-29T07:36:10;9.55;;;8.75;;
23838;SDS011;12100;44.384;20.272;2022-07-29T07:38:35;9.25;;;8.45;;
23838;SDS011;12100;44.384;20.272;2022-07-29T07:41:01;10.13;;;9.05;;
23838;SDS011;12100;44.384;20.272;2022-07-29T07:43:27;10.30;;;9.40;;
23838;SDS011;12100;44.384;20.272;2022-07-29T07:45:53;9.85;;;8.63;;
23838;SDS011;12100;44.384;20.272;2022-07-29T07:48:19;10.20;;;9.27;;
23838;SDS011;12100;44.384;20.272;2022-07-29T07:50:45;9.68;;;8.88;;
23838;SDS011;12100;44.384;20.272;2022-07-29T07:53:11;10.80;;;9.68;;
23838;SDS011;12100;44.384;20.272;2022-07-29T07:55:43;11.55;;;9.73;;
23838;SDS011;12100;44.384;20.272;2022-07-29T07:58:10;13.27;;;9.45;;
23838;SDS011;12100;44.384;20.272;2022-07-29T08:00:36;10.45;;;9.30;;
23838;SDS011;12100;44.384;20.272;2022-07-29T08:03:02;12.27;;;10.45;;
23838;SDS011;12100;44.384;20.272;2022-07-29T08:05:28;11.32;;;9.88;;
23838;SDS011;12100;44.384;20.272;2022-07-29T08:07:54;10.60;;;9.60;;
23838;SDS011;12100;44.384;20.272;2022-07-29T08:10:20;10.75;;;9.85;;
23838;SDS011;12100;44.384;20.272;2022-07-29T08:13:08;10.32;;;9.32;;
23838;SDS011;12100;44.384;20.272;2022-07-29T08:15:38;10.65;;;9.65;;
23838;SDS011;12100;44.384;20.272;2022-07-29T08:18:05;11.45;;;9.73;;
23838;SDS011;12100;44.384;20.272;2022-07-29T08:20:31;10.07;;;9.02;;
23838;SDS011;12100;44.384;20.272;2022-07-29T08:22:58;9.60;;;8.70;;
23838;SDS011;12100;44.384;20.272;2022-07-29T08:25:24;9.77;;;8.88;;
23838;SDS011;12100;44.384;20.272;2022-07-29T08:27:50;10.60;;;9.48;;
23838;SDS011;12100;44.384;20.272;2022-07-29T08:30:16;11.30;;;10.20;;
23838;SDS011;12100;44.384;20.272;2022-07-29T08:32:41;13.18;;;9.98;;
23838;SDS011;12100;44.384;20.272;2022-07-29T08:35:07;11.75;;;10.23;;
23838;SDS011;12100;44.384;20.272;2022-07-29T08:37:34;11.20;;;10.10;;
23838;SDS011;12100;44.384;20.272;2022-07-29T08:39:59;11.32;;;10.32;;
23838;SDS011;12100;44.384;20.272;2022-07-29T08:42:25;10.73;;;9.70;;
23838;SDS011;12100;44.384;20.272;2022-07-29T08:44:51;12.43;;;11.32;;
23838;SDS011;12100;44.384;20.272;2022-07-29T08:47:18;12.70;;;10.90;;
23838;SDS011;12100;44.384;20.272;2022-07-29T08:49:44;12.07;;;9.77;;
23838;SDS011;12100;44.384;20.272;2022-07-29T08:52:12;11.70;;;10.70;;
23838;SDS011;12100;44.384;20.272;2022-07-29T08:54:39;11.98;;;10.80;;
23838;SDS011;12100;44.384;20.272;2022-07-29T08:57:09;12.05;;;11.05;;
23838;SDS011;12100;44.384;20.272;2022-07-29T08:59:36;10.55;;;9.43;;
23838;SDS011;12100;44.384;20.272;2022-07-29T09:02:03;10.90;;;9.95;;
23838;SDS011;12100;44.384;20.272;2022-07-29T09:04:30;10.07;;;9.10;;
23838;SDS011;12100;44.384;20.272;2022-07-29T09:06:59;8.70;;;7.95;;
23838;SDS011;12100;44.384;20.272;2022-07-29T09:09:26;9.45;;;8.55;;
23838;SDS011;12100;44.384;20.272;2022-07-29T09:11:52;9.40;;;8.13;;
23838;SDS011;12100;44.384;20.272;2022-07-29T09:14:18;10.25;;;8.35;;
23838;SDS011;12100;44.384;20.272;2022-07-29T09:16:49;9.70;;;8.07;;
23838;SDS011;12100;44.384;20.272;2022-07-29T09:21:47;10.00;;;8.53;;
23838;SDS011;12100;44.384;20.272;2022-07-29T09:24:22;8.30;;;7.43;;
23838;SDS011;12100;44.384;20.272;2022-07-29T09:26:49;8.30;;;7.50;;
23838;SDS011;12100;44.384;20.272;2022-07-29T09:29:15;8.18;;;7.40;;
23838;SDS011;12100;44.384;20.272;2022-07-29T09:31:43;9.25;;;7.80;;
23838;SDS011;12100;44.384;20.272;2022-07-29T09:34:21;8.32;;;7.53;;
23838;SDS011;12100;44.384;20.272;2022-07-29T09:36:50;9.45;;;8.05;;
23838;SDS011;12100;44.384;20.272;2022-07-29T09:39:26;8.00;;;7.28;;
23838;SDS011;12100;44.384;20.272;2022-07-29T09:41:53;9.10;;;6.88;;
23838;SDS011;12100;44.384;20.272;2022-07-29T09:44:21;8.13;;;7.47;;
23838;SDS011;12100;44.384;20.272;2022-07-29T09:47:00;8.73;;;7.32;;
23838;SDS011;12100;44.384;20.272;2022-07-29T09:49:52;11.13;;;7.53;;
23838;SDS011;12100;44.384;20.272;2022-07-29T09:52:18;7.28;;;6.68;;
23838;SDS011;12100;44.384;20.272;2022-07-29T09:54:45;6.90;;;6.30;;
23838;SDS011;12100;44.384;20.272;2022-07-29T09:59:59;7.10;;;6.40;;
23838;SDS011;12100;44.384;20.272;2022-07-29T10:02:34;7.40;;;6.25;;
23838;SDS011;12100;44.384;20.272;2022-07-29T10:05:02;7.18;;;6.47;;
23838;SDS011;12100;44.384;20.272;2022-07-29T10:07:43;8.10;;;6.45;;
23838;SDS011;12100;44.384;20.272;2022-07-29T10:10:28;8.82;;;6.90;;
23838;SDS011;12100;44.384;20.272;2022-07-29T10:12:56;6.80;;;5.43;;
23838;SDS011;12100;44.384;20.272;2022-07-29T10:15:27;7.13;;;6.05;;
23838;SDS011;12100;44.384;20.272;2022-07-29T10:17:58;5.80;;;5.25;;
23838;SDS011;12100;44.384;20.272;2022-07-29T10:20:25;5.53;;;5.03;;
23838;SDS011;12100;44.384;20.272;2022-07-29T10:22:52;6.38;;;5.47;;
23838;SDS011;12100;44.384;20.272;2022-07-29T10:25:18;7.40;;;6.18;;
23838;SDS011;12100;44.384;20.272;2022-07-29T10:27:45;6.85;;;6.15;;
23838;SDS011;12100;44.384;20.272;2022-07-29T10:30:13;6.68;;;6.18;;
23838;SDS011;12100;44.384;20.272;2022-07-29T10:44:04;6.90;;;5.78;;
23838;SDS011;12100;44.384;20.272;2022-07-29T10:46:38;6.45;;;5.45;;
23838;SDS011;12100;44.384;20.272;2022-07-29T10:54:16;7.72;;;6.68;;
23838;SDS011;12100;44.384;20.272;2022-07-29T10:57:19;8.02;;;7.43;;
23838;SDS011;12100;44.384;20.272;2022-07-29T11:07:31;7.20;;;6.50;;
23838;SDS011;12100;44.384;20.272;2022-07-29T11:15:14;6.68;;;6.03;;
23838;SDS011;12100;44.384;20.272;2022-07-29T11:20:39;6.97;;;6.28;;
23838;SDS011;12100;44.384;20.272;2022-07-29T11:25:46;6.43;;;5.77;;
23838;SDS011;12100;44.384;20.272;2022-07-29T11:39:37;9.48;;;6.07;;
23838;SDS011;12100;44.384;20.272;2022-07-29T11:44:54;5.95;;;5.45;;
23838;SDS011;12100;44.384;20.272;2022-07-29T11:47:23;5.50;;;5.00;;
23838;SDS011;12100;44.384;20.272;2022-07-29T11:49:50;7.90;;;5.82;;
23838;SDS011;12100;44.384;20.272;2022-07-29T11:52:17;6.72;;;6.13;;
23838;SDS011;12100;44.384;20.272;2022-07-29T11:54:43;6.53;;;5.93;;
23838;SDS011;12100;44.384;20.272;2022-07-29T11:57:11;9.05;;;5.50;;
23838;SDS011;12100;44.384;20.272;2022-07-29T11:59:39;5.97;;;5.38;;
23838;SDS011;12100;44.384;20.272;2022-07-29T12:02:07;6.80;;;6.20;;
23838;SDS011;12100;44.384;20.272;2022-07-29T12:04:33;6.63;;;5.03;;
23838;SDS011;12100;44.384;20.272;2022-07-29T12:07:13;6.00;;;5.30;;
23838;SDS011;12100;44.384;20.272;2022-07-29T12:09:39;5.78;;;5.32;;
23838;SDS011;12100;44.384;20.272;2022-07-29T12:12:05;6.80;;;5.40;;
23838;SDS011;12100;44.384;20.272;2022-07-29T12:14:32;6.25;;;5.63;;
23838;SDS011;12100;44.384;20.272;2022-07-29T12:16:58;6.13;;;4.95;;
23838;SDS011;12100;44.384;20.272;2022-07-29T12:19:25;9.68;;;5.47;;
23838;SDS011;12100;44.384;20.272;2022-07-29T12:21:54;12.20;;;5.97;;
23838;SDS011;12100;44.384;20.272;2022-07-29T12:24:21;7.88;;;5.68;;
23838;SDS011;12100;44.384;20.272;2022-07-29T12:26:51;7.93;;;5.63;;
23838;SDS011;12100;44.384;20.272;2022-07-29T12:29:22;6.20;;;5.57;;
23838;SDS011;12100;44.384;20.272;2022-07-29T12:31:51;6.45;;;5.60;;
23838;SDS011;12100;44.384;20.272;2022-07-29T12:34:23;5.80;;;5.30;;
23838;SDS011;12100;44.384;20.272;2022-07-29T12:36:51;6.38;;;5.78;;
23838;SDS011;12100;44.384;20.272;2022-07-29T12:39:17;6.43;;;5.43;;
23838;SDS011;12100;44.384;20.272;2022-07-29T12:41:44;6.05;;;5.43;;
23838;SDS011;12100;44.384;20.272;2022-07-29T12:44:10;5.65;;;5.15;;
23838;SDS011;12100;44.384;20.272;2022-07-29T12:46:36;7.97;;;5.32;;
23838;SDS011;12100;44.384;20.272;2022-07-29T12:49:02;5.75;;;5.20;;
23838;SDS011;12100;44.384;20.272;2022-07-29T12:54:12;5.93;;;5.07;;
23838;SDS011;12100;44.384;20.272;2022-07-29T12:56:40;5.68;;;5.13;;
23838;SDS011;12100;44.384;20.272;2022-07-29T12:59:18;6.20;;;5.50;;
23838;SDS011;12100;44.384;20.272;2022-07-29T13:01:45;5.60;;;4.82;;
23838;SDS011;12100;44.384;20.272;2022-07-29T13:04:30;6.13;;;5.03;;
23838;SDS011;12100;44.384;20.272;2022-07-29T13:07:01;7.22;;;5.13;;
23838;SDS011;12100;44.384;20.272;2022-07-29T13:12:10;7.93;;;4.68;;
23838;SDS011;12100;44.384;20.272;2022-07-29T13:14:55;5.90;;;4.90;;
23838;SDS011;12100;44.384;20.272;2022-07-29T13:17:22;5.72;;;5.22;;
23838;SDS011;12100;44.384;20.272;2022-07-29T13:19:49;6.47;;;5.32;;
23838;SDS011;12100;44.384;20.272;2022-07-29T13:22:37;6.28;;;5.63;;
23838;SDS011;12100;44.384;20.272;2022-07-29T13:25:03;7.03;;;5.65;;
23838;SDS011;12100;44.384;20.272;2022-07-29T13:27:32;5.85;;;5.35;;
23838;SDS011;12100;44.384;20.272;2022-07-29T13:30:00;5.70;;;5.20;;
23838;SDS011;12100;44.384;20.272;2022-07-29T13:32:28;10.38;;;6.22;;
23838;SDS011;12100;44.384;20.272;2022-07-29T13:34:56;6.35;;;5.75;;
23838;SDS011;12100;44.384;20.272;2022-07-29T13:37:24;10.20;;;6.00;;
23838;SDS011;12100;44.384;20.272;2022-07-29T13:39:50;8.43;;;5.60;;
23838;SDS011;12100;44.384;20.272;2022-07-29T13:42:17;6.80;;;6.20;;
23838;SDS011;12100;44.384;20.272;2022-07-29T13:44:43;6.75;;;5.57;;
23838;SDS011;12100;44.384;20.272;2022-07-29T13:47:09;5.65;;;5.15;;
23838;SDS011;12100;44.384;20.272;2022-07-29T13:49:35;6.47;;;5.88;;
23838;SDS011;12100;44.384;20.272;2022-07-29T13:52:01;6.47;;;5.85;;
23838;SDS011;12100;44.384;20.272;2022-07-29T13:54:28;6.00;;;5.20;;
23838;SDS011;12100;44.384;20.272;2022-07-29T13:56:54;6.57;;;5.20;;
23838;SDS011;12100;44.384;20.272;2022-07-29T13:59:19;8.70;;;6.00;;
23838;SDS011;12100;44.384;20.272;2022-07-29T14:01:45;7.03;;;5.80;;
23838;SDS011;12100;44.384;20.272;2022-07-29T14:04:11;6.70;;;6.10;;
23838;SDS011;12100;44.384;20.272;2022-07-29T14:06:37;7.80;;;6.32;;
23838;SDS011;12100;44.384;20.272;2022-07-29T14:09:03;6.78;;;6.15;;
23838;SDS011;12100;44.384;20.272;2022-07-29T14:11:35;5.97;;;5.32;;
23838;SDS011;12100;44.384;20.272;2022-07-29T14:14:03;6.03;;;5.50;;
23838;SDS011;12100;44.384;20.272;2022-07-29T14:16:29;6.90;;;6.30;;
23838;SDS011;12100;44.384;20.272;2022-07-29T14:18:55;6.15;;;5.65;;
23838;SDS011;12100;44.384;20.272;2022-07-29T14:21:20;5.97;;;5.45;;
23838;SDS011;12100;44.384;20.272;2022-07-29T14:23:46;6.20;;;5.60;;
23838;SDS011;12100;44.384;20.272;2022-07-29T14:26:12;6.65;;;5.80;;
23838;SDS011;12100;44.384;20.272;2022-07-29T14:28:38;7.57;;;5.30;;
23838;SDS011;12100;44.384;20.272;2022-07-29T14:31:04;6.32;;;5.72;;
23838;SDS011;12100;44.384;20.272;2022-07-29T14:33:30;6.75;;;5.97;;
23838;SDS011;12100;44.384;20.272;2022-07-29T14:35:56;9.70;;;6.35;;
23838;SDS011;12100;44.384;20.272;2022-07-29T14:38:22;9.00;;;5.88;;
23838;SDS011;12100;44.384;20.272;2022-07-29T14:40:47;9.70;;;6.43;;
23838;SDS011;12100;44.384;20.272;2022-07-29T14:43:13;7.05;;;6.35;;
23838;SDS011;12100;44.384;20.272;2022-07-29T14:45:40;7.20;;;6.50;;
23838;SDS011;12100;44.384;20.272;2022-07-29T14:48:06;6.53;;;5.95;;
23838;SDS011;12100;44.384;20.272;2022-07-29T14:50:32;6.43;;;5.88;;
23838;SDS011;12100;44.384;20.272;2022-07-29T14:52:58;6.22;;;5.80;;
23838;SDS011;12100;44.384;20.272;2022-07-29T14:55:26;7.63;;;6.72;;
23838;SDS011;12100;44.384;20.272;2022-07-29T14:57:51;8.55;;;6.90;;
23838;SDS011;12100;44.384;20.272;2022-07-29T15:00:18;6.65;;;6.10;;
23838;SDS011;12100;44.384;20.272;2022-07-29T15:02:45;6.80;;;6.20;;
23838;SDS011;12100;44.384;20.272;2022-07-29T15:05:12;6.97;;;6.38;;
23838;SDS011;12100;44.384;20.272;2022-07-29T15:07:37;7.05;;;6.35;;
23838;SDS011;12100;44.384;20.272;2022-07-29T15:10:03;7.22;;;6.53;;
23838;SDS011;12100;44.384;20.272;2022-07-29T15:12:30;7.00;;;6.28;;
23838;SDS011;12100;44.384;20.272;2022-07-29T15:14:56;7.43;;;6.28;;
23838;SDS011;12100;44.384;20.272;2022-07-29T15:17:22;7.65;;;7.05;;
23838;SDS011;12100;44.384;20.272;2022-07-29T15:19:48;8.48;;;6.00;;
23838;SDS011;12100;44.384;20.272;2022-07-29T15:22:14;7.97;;;6.45;;
23838;SDS011;12100;44.384;20.272;2022-07-29T15:24:40;8.30;;;6.30;;
23838;SDS011;12100;44.384;20.272;2022-07-29T15:27:05;7.57;;;6.97;;
23838;SDS011;12100;44.384;20.272;2022-07-29T15:29:31;7.68;;;6.95;;
23838;SDS011;12100;44.384;20.272;2022-07-29T15:31:58;7.38;;;6.38;;
23838;SDS011;12100;44.384;20.272;2022-07-29T15:34:24;7.15;;;6.53;;
23838;SDS011;12100;44.384;20.272;2022-07-29T15:36:52;7.10;;;6.50;;
23838;SDS011;12100;44.384;20.272;2022-07-29T15:39:19;7.22;;;6.57;;
23838;SDS011;12100;44.384;20.272;2022-07-29T15:41:45;6.55;;;5.93;;
23838;SDS011;12100;44.384;20.272;2022-07-29T15:44:11;7.05;;;6.55;;
23838;SDS011;12100;44.384;20.272;2022-07-29T15:46:37;7.10;;;6.47;;
23838;SDS011;12100;44.384;20.272;2022-07-29T15:49:21;7.28;;;6.68;;
23838;SDS011;12100;44.384;20.272;2022-07-29T15:51:47;7.43;;;6.78;;
23838;SDS011;12100;44.384;20.272;2022-07-29T15:54:13;8.48;;;7.05;;